createdAt,value
2018-08-13T00:02:09.603Z,100546.51
2018-08-13T00:05:34.048Z,100543.53
2018-08-13T00:08:58.536Z,100531.95
2018-08-13T00:12:23.027Z,100527.67
2018-08-13T00:15:47.472Z,100533.69
2018-08-13T00:19:11.859Z,100522.60
2018-08-13T00:22:36.277Z,100525.91
2018-08-13T00:26:00.699Z,100507.87
2018-08-13T00:29:25.271Z,100495.95
2018-08-13T00:32:49.724Z,100491.36
2018-08-13T00:36:14.137Z,100478.98
2018-08-13T00:39:38.524Z,100470.84
2018-08-13T00:43:02.996Z,100476.61
2018-08-13T00:49:50.880Z,100492.99
2018-08-13T00:53:15.303Z,100501.52
2018-08-13T00:56:39.714Z,100504.38
2018-08-13T01:00:05.025Z,100510.59
2018-08-13T01:03:29.443Z,100510.20
2018-08-13T01:06:53.882Z,100494.84
2018-08-13T01:10:21.973Z,100486.86
2018-08-13T01:13:46.378Z,100482.11
2018-08-13T01:17:10.877Z,100481.33
2018-08-13T01:20:35.558Z,100476.50
2018-08-13T01:23:59.949Z,100465.98
2018-08-13T01:27:29.588Z,100457.27
2018-08-13T01:30:54.062Z,100464.00
2018-08-13T01:34:18.496Z,100455.91
2018-08-13T01:37:42.951Z,100443.78
2018-08-13T01:41:07.367Z,100441.83
2018-08-13T01:44:31.783Z,100435.50
2018-08-13T01:47:56.209Z,100437.16
2018-08-13T01:51:20.664Z,100431.48
2018-08-13T01:54:45.145Z,100435.35
2018-08-13T01:58:09.583Z,100436.27
2018-08-13T02:01:34.051Z,100442.25
2018-08-13T02:04:58.462Z,100433.22
2018-08-13T02:08:22.865Z,100421.36
2018-08-13T02:11:47.308Z,100425.84
2018-08-13T02:15:11.819Z,100427.61
2018-08-13T02:18:36.237Z,100431.00
2018-08-13T02:22:00.887Z,100426.55
2018-08-13T02:25:25.312Z,100420.98
2018-08-13T02:28:49.756Z,100405.23
2018-08-13T02:32:14.204Z,100398.38
2018-08-13T02:35:38.632Z,100389.89
2018-08-13T02:39:03.165Z,100386.67
2018-08-13T02:42:27.785Z,100380.59
2018-08-13T02:45:52.249Z,100367.00
2018-08-13T02:49:16.667Z,100368.45
2018-08-13T02:52:41.314Z,100367.80
2018-08-13T02:56:05.882Z,100363.69
2018-08-13T02:59:30.316Z,100363.69
2018-08-13T03:02:54.756Z,100363.56
2018-08-13T03:06:19.212Z,100357.73
2018-08-13T03:09:43.626Z,100355.64
2018-08-13T03:13:08.126Z,100357.34
2018-08-13T03:16:32.547Z,100361.27
2018-08-13T03:19:57.519Z,100370.55
2018-08-13T03:23:22.081Z,100383.91
2018-08-13T03:26:46.560Z,100402.33
2018-08-13T03:30:12.801Z,100407.69
2018-08-13T03:33:37.398Z,100414.38
2018-08-13T03:37:01.706Z,100408.92
2018-08-13T03:40:26.162Z,100409.38
2018-08-13T03:43:50.646Z,100409.81
2018-08-13T03:47:15.176Z,100405.31
2018-08-13T03:50:39.663Z,100400.01
2018-08-13T03:54:04.148Z,100403.09
2018-08-13T03:57:28.609Z,100406.46
2018-08-13T04:00:53.104Z,100416.02
2018-08-13T04:04:17.543Z,100414.73
2018-08-13T04:07:41.995Z,100427.08
2018-08-13T04:11:06.700Z,100440.43
2018-08-13T04:14:31.230Z,100453.33
2018-08-13T04:17:55.661Z,100465.91
2018-08-13T04:21:20.110Z,100469.52
2018-08-13T04:24:44.688Z,100480.48
2018-08-13T04:28:09.083Z,100488.50
2018-08-13T04:31:33.530Z,100479.50
2018-08-13T04:34:58.184Z,100489.34
2018-08-13T04:38:22.578Z,100493.70
2018-08-13T04:41:46.965Z,100501.80
2018-08-13T04:45:11.632Z,100510.64
2018-08-13T04:48:36.076Z,100487.50
2018-08-13T04:52:00.524Z,100489.54
2018-08-13T04:55:24.954Z,100489.50
2018-08-13T04:58:49.445Z,100479.64
2018-08-13T05:02:13.924Z,100468.52
2018-08-13T05:05:38.370Z,100467.98
2018-08-13T05:09:06.695Z,100472.09
2018-08-13T05:12:31.177Z,100468.95
2018-08-13T05:15:55.625Z,100461.34
2018-08-13T05:19:20.077Z,100456.20
2018-08-13T05:22:44.532Z,100454.86
2018-08-13T05:26:10.468Z,100434.85
2018-08-13T05:29:34.960Z,100443.48
2018-08-13T05:32:59.408Z,100440.96
2018-08-13T05:36:23.829Z,100449.58
2018-08-13T05:39:48.301Z,100472.19
2018-08-13T05:43:12.761Z,100467.41
2018-08-13T05:46:37.179Z,100463.95
2018-08-13T05:50:01.607Z,100451.11
2018-08-13T05:53:26.042Z,100445.40
2018-08-13T05:56:50.460Z,100432.05
2018-08-13T06:00:14.857Z,100441.27
2018-08-13T06:03:39.302Z,100424.24
2018-08-13T06:07:03.947Z,100431.48
2018-08-13T06:10:28.353Z,100414.25
2018-08-13T06:13:52.768Z,100407.97
2018-08-13T06:17:17.206Z,100382.87
2018-08-13T06:20:41.703Z,100344.12
2018-08-13T06:24:06.256Z,100340.22
2018-08-13T06:27:30.627Z,100354.77
2018-08-13T06:30:55.090Z,100341.96
2018-08-13T06:34:19.500Z,100337.20
2018-08-13T06:37:44.622Z,100344.02
2018-08-13T06:41:09.018Z,100385.71
2018-08-13T06:44:33.448Z,100396.66
2018-08-13T06:47:57.951Z,100408.48
2018-08-13T06:51:22.444Z,100402.17
2018-08-13T06:54:46.867Z,100402.17
2018-08-13T06:58:11.338Z,100407.66
2018-08-13T07:01:35.794Z,100404.92
2018-08-13T07:05:00.227Z,100409.87
2018-08-13T07:08:24.705Z,100415.33
2018-08-13T07:11:49.128Z,100411.92
2018-08-13T07:15:14.130Z,100412.95
2018-08-13T07:18:38.627Z,100409.00
2018-08-13T07:22:03.262Z,100414.65
2018-08-13T07:25:27.643Z,100421.50
2018-08-13T07:28:52.079Z,100422.34
2018-08-13T07:32:16.516Z,100428.49
2018-08-13T07:35:40.952Z,100429.14
2018-08-13T07:39:08.907Z,100445.91
2018-08-13T07:42:33.418Z,100452.60
2018-08-13T07:45:57.870Z,100458.21
2018-08-13T07:49:22.298Z,100474.13
2018-08-13T07:52:46.705Z,100472.75
2018-08-13T07:56:11.258Z,100478.91
2018-08-13T07:59:35.745Z,100473.10
2018-08-13T08:03:00.224Z,100480.97
2018-08-13T08:06:24.686Z,100471.13
2018-08-13T08:09:49.198Z,100471.33
2018-08-13T08:13:13.720Z,100485.19
2018-08-13T08:16:38.384Z,100476.09
2018-08-13T08:20:03.425Z,100472.74
2018-08-13T08:23:29.566Z,100481.41
2018-08-13T08:26:54.092Z,100485.08
2018-08-13T08:30:18.536Z,100486.23
2018-08-13T08:33:42.996Z,100484.46
2018-08-13T08:37:07.522Z,100493.66
2018-08-13T08:40:32.089Z,100497.49
2018-08-13T08:43:56.552Z,100495.58
2018-08-13T08:47:21.032Z,100499.69
2018-08-13T08:50:45.555Z,100498.59
2018-08-13T08:54:11.393Z,100488.55
2018-08-13T08:57:35.895Z,100486.23
2018-08-13T09:01:00.383Z,100489.58
2018-08-13T09:04:24.865Z,100491.75
2018-08-13T09:07:49.459Z,100497.77
2018-08-13T09:11:13.916Z,100503.56
2018-08-13T09:14:38.369Z,100491.42
2018-08-13T09:37:22.692Z,100480.58
2018-08-13T09:40:47.131Z,100491.31
2018-08-13T09:44:11.602Z,100479.33
2018-08-13T09:47:36.248Z,100473.94
2018-08-13T09:51:00.708Z,100478.67
2018-08-13T09:54:25.180Z,100474.81
2018-08-13T09:57:50.295Z,100468.27
2018-08-13T10:01:14.659Z,100473.91
2018-08-13T10:04:39.125Z,100466.89
2018-08-13T10:08:03.622Z,100469.49
2018-08-13T10:11:28.071Z,100470.78
2018-08-13T10:14:52.561Z,100467.62
2018-08-13T10:18:16.963Z,100457.08
2018-08-13T10:21:41.344Z,100453.92
2018-08-13T10:25:07.422Z,100450.13
2018-08-13T10:28:31.880Z,100446.34
2018-08-13T10:31:56.354Z,100447.69
2018-08-13T10:35:20.759Z,100441.54
2018-08-13T10:38:45.283Z,100442.22
2018-08-13T10:42:09.775Z,100437.08
2018-08-13T10:45:34.238Z,100432.92
2018-08-13T10:48:58.702Z,100426.83
2018-08-13T10:52:23.219Z,100424.73
2018-08-13T10:55:47.625Z,100417.38
2018-08-13T10:59:12.032Z,100413.16
2018-08-13T11:02:36.466Z,100427.28
2018-08-13T11:06:00.896Z,100425.44
2018-08-13T11:09:25.327Z,100425.19
2018-08-13T11:12:49.745Z,100423.22
2018-08-13T11:16:14.242Z,100430.13
2018-08-13T11:19:38.685Z,100414.64
2018-08-13T11:23:03.167Z,100420.64
2018-08-13T11:26:27.678Z,100418.38
2018-08-13T11:29:52.177Z,100406.98
2018-08-13T11:33:16.702Z,100406.87
2018-08-13T11:36:41.173Z,100401.98
2018-08-13T11:40:13.321Z,100402.62
2018-08-13T11:43:37.792Z,100394.61
2018-08-13T11:47:02.271Z,100392.06
2018-08-13T11:50:26.814Z,100383.72
2018-08-13T11:53:51.389Z,100385.59
2018-08-13T11:57:15.853Z,100368.17
2018-08-13T12:00:40.365Z,100373.30
2018-08-13T12:04:04.875Z,100354.80
2018-08-13T12:07:29.428Z,100339.59
2018-08-13T12:10:53.985Z,100346.36
2018-08-13T12:14:18.461Z,100357.86
2018-08-13T12:17:43.277Z,100367.34
2018-08-13T12:21:07.778Z,100364.05
2018-08-13T12:24:32.323Z,100358.89
2018-08-13T12:27:56.853Z,100352.63
2018-08-13T12:31:21.384Z,100359.68
2018-08-13T12:34:45.900Z,100362.61
2018-08-13T12:38:10.504Z,100392.41
2018-08-13T12:41:35.068Z,100381.26
2018-08-13T12:44:59.544Z,100391.67
2018-08-13T12:48:24.019Z,100394.44
2018-08-13T12:51:48.505Z,100406.84
2018-08-13T12:55:13.447Z,100402.48
2018-08-13T12:58:37.947Z,100392.92
2018-08-13T13:02:02.502Z,100392.64
2018-08-13T13:05:26.985Z,100391.16
2018-08-13T13:08:51.630Z,100392.34
2018-08-13T13:12:16.072Z,100392.48
2018-08-13T13:15:40.592Z,100386.61
2018-08-13T13:19:05.130Z,100381.98
2018-08-13T13:22:29.685Z,100386.02
2018-08-13T13:25:54.382Z,100397.79
2018-08-13T13:29:18.804Z,100394.66
2018-08-13T13:32:43.581Z,100390.56
2018-08-13T13:36:08.334Z,100397.00
2018-08-13T13:39:32.882Z,100383.83
2018-08-13T13:42:57.435Z,100391.04
2018-08-13T13:46:22.000Z,100371.67
2018-08-13T13:49:46.448Z,100378.95
2018-08-13T13:53:10.887Z,100401.95
2018-08-13T13:56:35.358Z,100444.70
2018-08-13T13:59:59.823Z,100447.37
2018-08-13T14:03:24.310Z,100426.46
2018-08-13T14:06:48.748Z,100436.30
2018-08-13T14:10:17.375Z,100418.71
2018-08-13T14:13:41.864Z,100415.28
2018-08-13T14:17:06.468Z,100427.94
2018-08-13T14:20:30.978Z,100424.52
2018-08-13T14:23:55.470Z,100424.84
2018-08-13T14:27:19.948Z,100433.66
2018-08-13T14:30:44.406Z,100439.98
2018-08-13T14:34:08.869Z,100448.94
2018-08-13T14:37:33.351Z,100451.33
2018-08-13T14:40:57.788Z,100455.47
2018-08-13T14:44:22.238Z,100461.88
2018-08-13T14:47:48.133Z,100461.00
2018-08-13T14:51:12.591Z,100464.39
2018-08-13T14:54:36.995Z,100463.48
2018-08-13T14:58:01.443Z,100467.13
2018-08-13T15:01:25.952Z,100466.31
2018-08-13T15:04:52.487Z,100463.85
2018-08-13T15:08:16.981Z,100473.59
2018-08-13T15:11:42.374Z,100471.73
2018-08-13T15:15:09.834Z,100470.45
2018-08-13T15:18:34.252Z,100464.73
2018-08-13T15:21:58.715Z,100463.89
2018-08-13T15:25:23.227Z,100470.75
2018-08-13T15:28:47.670Z,100468.53
2018-08-13T15:32:12.083Z,100480.29
2018-08-13T15:35:36.544Z,100483.12
2018-08-13T15:39:00.998Z,100481.70
2018-08-13T15:42:25.478Z,100487.23
2018-08-13T15:45:49.896Z,100485.23
2018-08-13T15:49:14.331Z,100484.33
2018-08-13T15:52:39.088Z,100490.30
2018-08-13T15:56:03.500Z,100487.81
2018-08-13T15:59:27.925Z,100484.35
2018-08-13T16:02:52.546Z,100482.36
2018-08-13T16:06:17.028Z,100495.70
2018-08-13T16:09:41.776Z,100502.00
2018-08-13T16:13:06.215Z,100494.14
2018-08-13T16:16:30.648Z,100493.75
2018-08-13T16:19:55.273Z,100491.84
2018-08-13T16:23:19.745Z,100495.66
2018-08-13T16:26:44.270Z,100499.34
2018-08-13T16:30:26.244Z,100492.03
2018-08-13T16:33:50.728Z,100481.90
2018-08-13T16:37:15.177Z,100480.10
2018-08-13T16:40:39.588Z,100476.45
2018-08-13T16:44:04.103Z,100476.34
2018-08-13T16:47:28.536Z,100469.82
2018-08-13T16:50:53.006Z,100462.56
2018-08-13T16:54:17.381Z,100459.86
2018-08-13T16:57:42.595Z,100460.44
2018-08-13T17:01:07.127Z,100456.83
2018-08-13T17:04:31.529Z,100460.37
2018-08-13T17:07:55.921Z,100453.34
2018-08-13T17:11:20.383Z,100458.84
2018-08-13T17:14:46.955Z,100456.29
2018-08-13T17:18:11.605Z,100457.13
2018-08-13T17:21:38.609Z,100457.21
2018-08-13T17:25:04.124Z,100467.13
2018-08-13T17:28:29.522Z,100462.77
2018-08-13T17:31:55.227Z,100466.92
2018-08-13T17:35:22.396Z,100467.37
2018-08-13T17:38:46.981Z,100468.81
2018-08-13T17:42:11.389Z,100469.41
2018-08-13T17:45:35.848Z,100471.83
2018-08-13T17:49:00.661Z,100482.92
2018-08-13T17:52:25.124Z,100479.47
2018-08-13T17:55:49.861Z,100484.14
2018-08-13T17:59:17.079Z,100492.78
2018-08-13T18:02:42.170Z,100494.33
2018-08-13T18:06:07.316Z,100492.73
2018-08-13T18:12:56.013Z,100506.67
2018-08-13T18:16:21.490Z,100517.77
2018-08-13T18:19:45.977Z,100515.87
2018-08-13T18:23:10.530Z,100519.64
2018-08-13T18:26:35.129Z,100535.56
2018-08-13T18:30:00.977Z,100537.77
2018-08-13T18:33:27.533Z,100537.11
2018-08-13T18:36:52.077Z,100537.41
2018-08-13T18:40:23.608Z,100536.41
2018-08-13T18:43:48.045Z,100544.73
2018-08-13T18:47:13.011Z,100551.56
2018-08-13T18:50:37.557Z,100540.06
2018-08-13T18:54:02.178Z,100540.29
2018-08-13T18:57:26.712Z,100546.53
2018-08-13T19:00:54.058Z,100555.38
2018-08-13T19:04:18.580Z,100551.76
2018-08-13T19:07:44.326Z,100560.98
2018-08-13T19:11:09.732Z,100568.13
2018-08-13T19:14:34.168Z,100563.20
2018-08-13T19:17:58.648Z,100567.81
2018-08-13T19:21:23.196Z,100570.34
2018-08-13T19:24:47.712Z,100576.23
2018-08-13T19:28:12.204Z,100572.47
2018-08-13T19:31:36.651Z,100578.07
2018-08-13T19:35:01.137Z,100573.03
2018-08-13T19:38:25.559Z,100578.48
2018-08-13T19:41:50.085Z,100578.62
2018-08-13T19:45:15.570Z,100583.16
2018-08-13T19:48:39.974Z,100598.08
2018-08-13T19:52:04.503Z,100595.80
2018-08-13T19:55:28.943Z,100599.37
2018-08-13T19:58:53.358Z,100604.50
2018-08-13T20:02:17.900Z,100600.91
2018-08-13T20:05:42.714Z,100613.60
2018-08-13T20:09:10.088Z,100609.28
2018-08-13T20:12:34.558Z,100608.77
2018-08-13T20:15:58.984Z,100611.11
2018-08-13T20:19:23.467Z,100614.36
2018-08-13T20:22:48.424Z,100610.77
2018-08-13T20:26:12.888Z,100612.75
2018-08-13T20:29:37.358Z,100615.44
2018-08-13T20:33:02.140Z,100620.09
2018-08-13T20:36:26.620Z,100617.41
2018-08-13T20:40:08.368Z,100612.23
2018-08-13T20:43:32.969Z,100621.36
2018-08-13T20:46:57.827Z,100625.73
2018-08-13T20:50:24.750Z,100629.34
2018-08-13T20:53:49.235Z,100629.30
2018-08-13T20:57:13.921Z,100628.88
2018-08-13T21:00:38.421Z,100630.62
2018-08-13T21:04:02.927Z,100629.94
2018-08-13T21:07:27.471Z,100635.92
2018-08-13T21:10:52.002Z,100636.84
2018-08-13T21:14:16.416Z,100639.80
2018-08-13T21:17:41.217Z,100643.63
2018-08-13T21:21:05.827Z,100641.67
2018-08-13T21:24:30.406Z,100643.30
2018-08-13T21:27:55.076Z,100650.61
2018-08-13T21:31:19.639Z,100652.84
2018-08-13T21:34:44.212Z,100655.23
2018-08-13T21:38:09.444Z,100652.97
2018-08-13T21:41:33.968Z,100653.86
2018-08-13T21:44:59.048Z,100653.94
2018-08-13T21:48:23.560Z,100650.25
2018-08-13T21:51:48.179Z,100658.55
2018-08-13T21:55:12.928Z,100656.77
2018-08-13T21:58:37.389Z,100662.05
2018-08-13T22:02:01.975Z,100669.14
2018-08-13T22:05:26.438Z,100670.16
2018-08-13T22:08:50.927Z,100667.34
2018-08-13T22:12:20.370Z,100682.45
2018-08-13T22:15:44.915Z,100683.90
2018-08-13T22:19:10.308Z,100680.66
2018-08-13T22:22:34.749Z,100691.00
2018-08-13T22:25:59.327Z,100690.73
2018-08-13T22:29:23.816Z,100697.28
2018-08-13T22:32:48.283Z,100695.24
2018-08-13T22:36:12.927Z,100694.22
2018-08-13T22:39:37.350Z,100697.69
2018-08-13T22:43:02.036Z,100702.13
2018-08-13T22:46:26.462Z,100702.86
2018-08-13T22:49:50.921Z,100706.44
2018-08-13T22:53:15.420Z,100713.16
2018-08-13T22:56:39.916Z,100714.61
2018-08-13T23:00:05.249Z,100719.77
2018-08-13T23:03:29.721Z,100724.43
2018-08-13T23:06:54.234Z,100726.41
2018-08-13T23:10:20.520Z,100718.44
2018-08-13T23:13:44.974Z,100724.77
2018-08-13T23:17:09.429Z,100728.28
2018-08-13T23:20:33.904Z,100739.61
2018-08-13T23:23:58.516Z,100736.98
2018-08-13T23:27:22.980Z,100736.27
2018-08-13T23:30:47.479Z,100744.16
2018-08-13T23:34:12.014Z,100742.34
2018-08-13T23:37:36.509Z,100743.52
2018-08-13T23:41:00.988Z,100746.55
2018-08-13T23:44:25.501Z,100752.73
2018-08-13T23:47:50.037Z,100749.67
2018-08-13T23:51:14.526Z,100754.63
2018-08-13T23:54:38.980Z,100750.32
2018-08-13T23:58:04.611Z,100751.05
